Time;durP1;ratioP1;P1;durP2;ratioP2;P2;SDS_P1;SDS_P2;PMS_P1;PMS_P2;Temp;Humidity;BMP_temperature;BMP_pressure;BME280_temperature;BME280_humidity;BME280_pressure;Samples;Min_cycle;Max_cycle;Signal;HPM_P1;HPM_P2
2021/06/28 00:00:16;;;;;;;;;;;;;;;;;;5031489;28;19916;-77
2021/06/28 00:02:41;;;;;;;;;;;;;;;;;;5018658;28;19908;-77
2021/06/28 00:05:07;;;;;;;;;;;;;;;;;;5017972;28;19967;-78
2021/06/28 00:07:33;;;;;;;;;;;;;;;;;;5027984;28;19995;-78
2021/06/28 00:10:06;;;;;;;;;;;;;;;;;;5011919;28;19913;-77
2021/06/28 00:12:31;;;;;;;;;;;;;;;;;;5040958;28;19909;-77
2021/06/28 00:14:57;;;;;;;;;;;;;;;;;;5015270;28;19909;-77
2021/06/28 00:17:24;;;;;;;;;;;;;;;;;;5021563;28;19905;-77
2021/06/28 00:19:50;;;;;;;;;;;;;;;;;;5018606;28;19909;-77
2021/06/28 00:30:33;;;;;;;;;;;;;;;;;;5035661;28;19979;-77
2021/06/28 00:32:58;;;;;;;;;;;;;;;;;;5020921;28;19956;-77
2021/06/28 00:35:24;;;;;;;;;;;;;;;;;;5010458;28;19957;-76
2021/06/28 00:37:50;;;;;;;;;;;;;;;;;;5005102;28;19955;-78
2021/06/28 00:40:16;;;;;;;;;;;;;;;;;;4998359;28;19909;-77
2021/06/28 00:42:42;;;;;;;;;;;;;;;;;;5001164;28;19952;-77
2021/06/28 00:45:08;;;;;;;;;;;;;;;;;;5017989;28;19909;-77
2021/06/28 00:47:40;;;;;;;;;;;;;;;;;;5004786;28;19931;-78
2021/06/28 00:50:06;;;;;;;;;;;;;;;;;;5009093;28;20588;-78
2021/06/28 00:52:32;;;;;;;;;;;;;;;;;;5010052;28;19909;-78
2021/06/28 00:54:57;;;;;;;;;;;;;;;;;;5011047;28;20354;-76
2021/06/28 00:57:23;;;;;;;;;;;;;;;;;;5003511;28;19917;-77
2021/06/28 00:59:49;;;;;;;;;;;;;;;;;;5005370;28;20012;-77
2021/06/28 01:02:15;;;;;;;;;;;;;;;;;;5017218;28;19909;-77
2021/06/28 01:10:10;;;;;;;;;;;;;;;;;;5020841;28;20372;-77
2021/06/28 01:12:36;;;;;;;;;;;;;;;;;;5003259;28;19909;-78
2021/06/28 01:15:02;;;;;;;;;;;;;;;;;;5008130;28;19905;-78
2021/06/28 01:17:28;;;;;;;;;;;;;;;;;;5004311;28;19909;-78
2021/06/28 01:19:54;;;;;;;;;;;;;;;;;;5003019;28;19909;-78
2021/06/28 01:22:21;;;;;;;;;;;;;;;;;;5004832;28;19917;-77
2021/06/28 01:24:47;;;;;;;;;;;;;;;;;;5004689;28;19913;-79
2021/06/28 01:27:13;;;;;;;;;;;;;;;;;;5011413;28;19916;-78
2021/06/28 01:29:39;;;;;;;;;;;;;;;;;;5003261;28;19984;-77
2021/06/28 01:34:49;;;;;;;;;;;;;;;;;;5025220;28;19947;-78
2021/06/28 01:37:15;;;;;;;;;;;;;;;;;;5020145;28;19909;-76
2021/06/28 01:39:41;;;;;;;;;;;;;;;;;;5015550;28;19909;-78
2021/06/28 01:42:07;;;;;;;;;;;;;;;;;;5024825;28;20004;-77
2021/06/28 01:47:19;;;;;;;;;;;;;;;;;;5016637;28;19916;-78
2021/06/28 01:49:45;;;;;;;;;;;;;;;;;;5003134;28;19913;-77
2021/06/28 01:52:11;;;;;;;;;;;;;;;;;;5009148;28;19916;-78
2021/06/28 01:54:37;;;;;;;;;;;;;;;;;;5000334;28;20420;-78
2021/06/28 01:57:02;;;;;;;;;;;;;;;;;;5005378;28;19980;-78
2021/06/28 01:59:29;;;;;;;;;;;;;;;;;;4996660;28;19909;-79
2021/06/28 02:01:55;;;;;;;;;;;;;;;;;;5003071;28;19905;-78
2021/06/28 02:04:21;;;;;;;;;;;;;;;;;;5014844;28;19910;-77
2021/06/28 02:06:48;;;;;;;;;;;;;;;;;;4996886;28;19965;-78
2021/06/28 02:09:15;;;;;;;;;;;;;;;;;;5011900;28;19987;-79
2021/06/28 02:11:41;;;;;;;;;;;;;;;;;;5004688;28;19913;-77
2021/06/28 02:14:07;;;;;;;;;;;;;;;;;;4997195;28;19905;-78
2021/06/28 02:16:33;;;;;;;;;;;;;;;;;;5001175;28;19913;-78
2021/06/28 02:18:59;;;;;;;;;;;;;;;;;;5016614;28;19913;-79
2021/06/28 02:24:13;;;;;;;;;;;;;;;;;;5016037;28;20568;-78
2021/06/28 02:26:39;;;;;;;;;;;;;;;;;;4988791;28;20599;-78
2021/06/28 02:29:05;;;;;;;;;;;;;;;;;;5012092;28;20004;-77
2021/06/28 02:31:31;;;;;;;;;;;;;;;;;;5006109;28;19967;-78
2021/06/28 02:33:57;;;;;;;;;;;;;;;;;;5022945;28;19909;-78
2021/06/28 02:36:32;;;;;;;;;;;;;;;;;;5000099;28;20042;-80
2021/06/28 02:38:58;;;;;;;;;;;;;;;;;;5004476;28;19909;-78
2021/06/28 02:41:24;;;;;;;;;;;;;;;;;;5013138;28;20602;-78
2021/06/28 02:43:50;;;;;;;;;;;;;;;;;;5004379;28;19913;-78
2021/06/28 02:46:15;;;;;;;;;;;;;;;;;;4995760;28;19916;-77
2021/06/28 02:51:26;;;;;;;;;;;;;;;;;;5017215;28;19955;-77
2021/06/28 02:53:52;;;;;;;;;;;;;;;;;;4997667;28;20375;-78
2021/06/28 02:56:19;;;;;;;;;;;;;;;;;;5001202;28;19910;-79
2021/06/28 02:58:45;;;;;;;;;;;;;;;;;;4996415;28;19909;-78
2021/06/28 03:01:12;;;;;;;;;;;;;;;;;;5001194;28;19913;-78
2021/06/28 03:03:38;;;;;;;;;;;;;;;;;;5016429;28;20280;-78
2021/06/28 03:06:04;;;;;;;;;;;;;;;;;;5007508;28;19909;-79
2021/06/28 03:08:30;;;;;;;;;;;;;;;;;;4993704;28;19917;-78
2021/06/28 03:10:56;;;;;;;;;;;;;;;;;;4998433;28;20257;-78
2021/06/28 03:13:37;;;;;;;;;;;;;;;;;;5001291;28;19913;-78
2021/06/28 03:16:03;;;;;;;;;;;;;;;;;;5004455;28;19914;-78
2021/06/28 03:18:29;;;;;;;;;;;;;;;;;;5000360;28;19924;-77
2021/06/28 03:20:55;;;;;;;;;;;;;;;;;;5003978;28;20315;-79
2021/06/28 03:23:21;;;;;;;;;;;;;;;;;;5000147;28;19916;-78
2021/06/28 03:25:52;;;;;;;;;;;;;;;;;;4997961;28;19917;-79
2021/06/28 03:28:18;;;;;;;;;;;;;;;;;;4999693;28;19913;-78
2021/06/28 03:30:44;;;;;;;;;;;;;;;;;;5011352;28;19938;-78
2021/06/28 03:33:10;;;;;;;;;;;;;;;;;;5006254;28;19956;-78
2021/06/28 03:35:36;;;;;;;;;;;;;;;;;;4999963;28;19925;-79
2021/06/28 03:40:46;;;;;;;;;;;;;;;;;;5011278;28;20339;-78
2021/06/28 03:43:12;;;;;;;;;;;;;;;;;;4995026;28;19961;-79
2021/06/28 03:45:38;;;;;;;;;;;;;;;;;;5009413;28;19913;-79
2021/06/28 03:48:04;;;;;;;;;;;;;;;;;;4996678;28;19960;-79
2021/06/28 03:56:08;;;;;;;;;;;;;;;;;;5006707;28;20011;-79
2021/06/28 03:58:34;;;;;;;;;;;;;;;;;;4990439;28;19948;-79
2021/06/28 04:01:01;;;;;;;;;;;;;;;;;;4994211;28;19949;-78
2021/06/28 04:03:28;;;;;;;;;;;;;;;;;;4994483;28;19906;-79
2021/06/28 04:05:55;;;;;;;;;;;;;;;;;;4994200;28;19963;-78
2021/06/28 04:08:23;;;;;;;;;;;;;;;;;;5011174;28;19948;-78
2021/06/28 04:10:50;;;;;;;;;;;;;;;;;;5011342;28;20545;-79
2021/06/28 04:13:15;;;;;;;;;;;;;;;;;;4994352;28;19909;-79
2021/06/28 04:15:42;;;;;;;;;;;;;;;;;;5006833;28;19932;-79
2021/06/28 04:18:08;;;;;;;;;;;;;;;;;;4993695;28;19914;-78
2021/06/28 04:23:18;;;;;;;;;;;;;;;;;;5008670;28;19918;-78
2021/06/28 04:25:44;;;;;;;;;;;;;;;;;;4994415;28;20561;-77
2021/06/28 04:28:10;;;;;;;;;;;;;;;;;;4991545;28;19913;-79
2021/06/28 04:30:36;;;;;;;;;;;;;;;;;;4994384;28;20368;-79
2021/06/28 04:35:46;;;;;;;;;;;;;;;;;;5025421;28;20172;-79
2021/06/28 04:38:12;;;;;;;;;;;;;;;;;;5012769;28;20001;-78
2021/06/28 04:40:38;;;;;;;;;;;;;;;;;;5012865;28;19932;-79
2021/06/28 04:43:04;;;;;;;;;;;;;;;;;;5023605;28;19948;-78
2021/06/28 04:45:39;;;;;;;;;;;;;;;;;;5031501;28;20397;-80
2021/06/28 04:48:05;;;;;;;;;;;;;;;;;;5008405;28;19909;-78
2021/06/28 04:50:31;;;;;;;;;;;;;;;;;;5013656;28;20305;-79
2021/06/28 04:52:57;;;;;;;;;;;;;;;;;;5026836;28;19936;-80
2021/06/28 04:55:23;;;;;;;;;;;;;;;;;;5028050;28;19905;-79
2021/06/28 04:57:58;;;;;;;;;;;;;;;;;;5011993;28;20283;-79
2021/06/28 05:00:24;;;;;;;;;;;;;;;;;;5016426;28;19909;-79
2021/06/28 05:02:49;;;;;;;;;;;;;;;;;;5029495;28;20276;-79
2021/06/28 05:05:15;;;;;;;;;;;;;;;;;;5010289;28;19920;-78
2021/06/28 05:07:44;;;;;;;;;;;;;;;;;;5033192;28;19913;-80
2021/06/28 05:10:10;;;;;;;;;;;;;;;;;;5014795;28;20583;-79
2021/06/28 05:12:36;;;;;;;;;;;;;;;;;;5033185;28;19996;-77
2021/06/28 05:15:02;;;;;;;;;;;;;;;;;;5014799;28;20382;-80
2021/06/28 05:17:28;;;;;;;;;;;;;;;;;;5015372;28;19959;-79
2021/06/28 05:19:54;;;;;;;;;;;;;;;;;;5015986;28;19992;-80
2021/06/28 05:22:20;;;;;;;;;;;;;;;;;;5026576;28;19908;-79
2021/06/28 05:24:46;;;;;;;;;;;;;;;;;;5016883;28;19913;-80
2021/06/28 05:27:12;;;;;;;;;;;;;;;;;;5013600;28;19909;-80
2021/06/28 05:29:38;;;;;;;;;;;;;;;;;;5015842;28;19909;-79
2021/06/28 05:32:05;;;;;;;;;;;;;;;;;;5016345;28;20552;-81
2021/06/28 05:34:31;;;;;;;;;;;;;;;;;;5034297;28;20330;-80
2021/06/28 05:36:57;;;;;;;;;;;;;;;;;;5033007;28;19909;-80
2021/06/28 05:39:23;;;;;;;;;;;;;;;;;;5016219;28;19908;-80
2021/06/28 05:41:49;;;;;;;;;;;;;;;;;;5033153;28;19914;-77
2021/06/28 05:44:27;;;;;;;;;;;;;;;;;;5031964;28;19987;-77
2021/06/28 05:46:53;;;;;;;;;;;;;;;;;;5015561;28;19916;-78
2021/06/28 05:49:19;;;;;;;;;;;;;;;;;;5015977;28;19909;-79
2021/06/28 05:51:44;;;;;;;;;;;;;;;;;;5016129;28;19980;-79
2021/06/28 05:54:10;;;;;;;;;;;;;;;;;;5033208;28;20003;-79
2021/06/28 05:59:30;;;;;;;;;;;;;;;;;;5032887;28;19916;-78
2021/06/28 06:01:56;;;;;;;;;;;;;;;;;;5032971;28;19959;-78
2021/06/28 06:04:22;;;;;;;;;;;;;;;;;;5028777;28;19909;-78
2021/06/28 06:06:48;;;;;;;;;;;;;;;;;;5024745;28;19909;-79
2021/06/28 06:09:14;;;;;;;;;;;;;;;;;;5014081;28;19911;-78
2021/06/28 06:11:40;;;;;;;;;;;;;;;;;;5014350;28;21846;-78
2021/06/28 06:14:05;;;;;;;;;;;;;;;;;;5009441;28;19923;-78
2021/06/28 06:16:31;;;;;;;;;;;;;;;;;;5014702;28;20322;-78
2021/06/28 06:18:57;;;;;;;;;;;;;;;;;;5010382;28;19909;-79
2021/06/28 06:21:24;;;;;;;;;;;;;;;;;;5008857;28;19909;-79
2021/06/28 06:23:50;;;;;;;;;;;;;;;;;;5013215;28;20053;-80
2021/06/28 06:26:16;;;;;;;;;;;;;;;;;;5013860;28;20365;-79
2021/06/28 06:28:42;;;;;;;;;;;;;;;;;;5024879;28;20260;-78
2021/06/28 06:31:08;;;;;;;;;;;;;;;;;;5015947;28;20000;-79
2021/06/28 06:33:43;;;;;;;;;;;;;;;;;;5010863;28;20340;-79
2021/06/28 06:36:09;;;;;;;;;;;;;;;;;;5012751;28;19975;-78
2021/06/28 06:38:34;;;;;;;;;;;;;;;;;;5014956;28;19905;-79
2021/06/28 06:41:00;;;;;;;;;;;;;;;;;;5015182;28;19905;-80
2021/06/28 06:43:26;;;;;;;;;;;;;;;;;;5032737;28;20315;-81
2021/06/28 06:45:53;;;;;;;;;;;;;;;;;;5013486;28;20000;-79
2021/06/28 06:48:19;;;;;;;;;;;;;;;;;;5028667;28;19915;-79
2021/06/28 06:50:45;;;;;;;;;;;;;;;;;;5012182;28;19913;-78
2021/06/28 06:53:11;;;;;;;;;;;;;;;;;;5024970;28;19954;-77
2021/06/28 06:55:37;;;;;;;;;;;;;;;;;;5028977;28;19913;-76
2021/06/28 07:01:00;;;;;;;;;;;;;;;;;;5023871;28;19962;-79
2021/06/28 07:03:26;;;;;;;;;;;;;;;;;;5021596;28;20313;-78
2021/06/28 07:05:51;;;;;;;;;;;;;;;;;;5003633;28;19940;-77
2021/06/28 07:08:17;;;;;;;;;;;;;;;;;;5020651;28;20039;-79
2021/06/28 07:10:43;;;;;;;;;;;;;;;;;;5010443;28;19909;-76
2021/06/28 07:15:54;;;;;;;;;;;;;;;;;;5021878;28;19959;-75
2021/06/28 07:18:20;;;;;;;;;;;;;;;;;;5021940;28;20008;-76
2021/06/28 07:20:46;;;;;;;;;;;;;;;;;;5017578;28;19913;-75
2021/06/28 07:23:11;;;;;;;;;;;;;;;;;;5008097;28;19959;-77
2021/06/28 07:25:37;;;;;;;;;;;;;;;;;;5028481;28;19917;-76
2021/06/28 07:28:03;;;;;;;;;;;;;;;;;;5021426;28;19916;-76
2021/06/28 07:30:29;;;;;;;;;;;;;;;;;;5032023;28;20386;-78
2021/06/28 07:32:55;;;;;;;;;;;;;;;;;;5011464;28;19909;-75
2021/06/28 07:35:21;;;;;;;;;;;;;;;;;;4975540;28;1066239;-75
2021/06/28 07:37:47;;;;;;;;;;;;;;;;;;5017660;28;19905;-75
2021/06/28 07:40:13;;;;;;;;;;;;;;;;;;5032897;28;19936;-76
2021/06/28 07:42:39;;;;;;;;;;;;;;;;;;5032482;28;19913;-75
2021/06/28 07:45:06;;;;;;;;;;;;;;;;;;5011954;28;19909;-75
2021/06/28 07:47:32;;;;;;;;;;;;;;;;;;5028181;28;19908;-76
2021/06/28 07:50:01;;;;;;;;;;;;;;;;;;5011981;28;19906;-76
2021/06/28 07:52:27;;;;;;;;;;;;;;;;;;5023186;28;19916;-75
2021/06/28 07:54:53;;;;;;;;;;;;;;;;;;5031556;28;19909;-77
2021/06/28 07:57:19;;;;;;;;;;;;;;;;;;5015177;28;19905;-75
2021/06/28 07:59:45;;;;;;;;;;;;;;;;;;5008474;28;19905;-74
2021/06/28 08:02:11;;;;;;;;;;;;;;;;;;5032151;28;19984;-76
2021/06/28 08:04:37;;;;;;;;;;;;;;;;;;5012670;28;19909;-75
2021/06/28 08:15:19;;;;;;;;;;;;;;;;;;5029650;28;20541;-76
2021/06/28 08:17:45;;;;;;;;;;;;;;;;;;5011614;28;19905;-75
2021/06/28 08:20:11;;;;;;;;;;;;;;;;;;5010684;28;19916;-76
2021/06/28 08:22:37;;;;;;;;;;;;;;;;;;5025359;28;19909;-77
2021/06/28 08:27:50;;;;;;;;;;;;;;;;;;5024186;28;19916;-78
2021/06/28 08:30:16;;;;;;;;;;;;;;;;;;5028355;28;20003;-79
2021/06/28 08:32:42;;;;;;;;;;;;;;;;;;5026671;28;20014;-75
2021/06/28 08:35:08;;;;;;;;;;;;;;;;;;5017210;28;19917;-75
2021/06/28 08:37:52;;;;;;;;;;;;;;;;;;5016489;28;19963;-74
2021/06/28 08:40:18;;;;;;;;;;;;;;;;;;5016769;28;20329;-75
2021/06/28 08:42:44;;;;;;;;;;;;;;;;;;5034122;28;19905;-75
2021/06/28 08:45:10;;;;;;;;;;;;;;;;;;5016500;28;20004;-74
2021/06/28 08:47:35;;;;;;;;;;;;;;;;;;5035343;28;19991;-75
2021/06/28 08:55:31;;;;;;;;;;;;;;;;;;5033826;28;19920;-76
2021/06/28 08:57:57;;;;;;;;;;;;;;;;;;5034502;28;19909;-76
2021/06/28 09:00:22;;;;;;;;;;;;;;;;;;5032230;28;20549;-76
2021/06/28 09:02:48;;;;;;;;;;;;;;;;;;5034681;28;20002;-74
2021/06/28 09:07:59;;;;;;;;;;;;;;;;;;5030725;28;19920;-75
2021/06/28 09:10:25;;;;;;;;;;;;;;;;;;5017819;28;19912;-75
2021/06/28 09:12:51;;;;;;;;;;;;;;;;;;5017596;28;20299;-76
2021/06/28 09:15:17;;;;;;;;;;;;;;;;;;5013812;28;19909;-76
2021/06/28 09:20:28;;;;;;;;;;;;;;;;;;5031290;28;19919;-75
2021/06/28 09:22:53;;;;;;;;;;;;;;;;;;5015836;28;19996;-76
2021/06/28 09:25:19;;;;;;;;;;;;;;;;;;5025621;28;19913;-75
2021/06/28 09:27:45;;;;;;;;;;;;;;;;;;5010742;28;20583;-75
2021/06/28 09:30:14;;;;;;;;;;;;;;;;;;5013933;28;19913;-81
2021/06/28 09:32:40;;;;;;;;;;;;;;;;;;5007764;28;20344;-74
2021/06/28 09:35:06;;;;;;;;;;;;;;;;;;5028814;28;19909;-76
2021/06/28 09:37:32;;;;;;;;;;;;;;;;;;5029344;28;20331;-77
2021/06/28 09:39:58;;;;;;;;;;;;;;;;;;5014881;28;19959;-74
2021/06/28 09:42:24;;;;;;;;;;;;;;;;;;5014234;28;19955;-75
2021/06/28 09:44:50;;;;;;;;;;;;;;;;;;5012687;28;20273;-78
2021/06/28 09:47:16;;;;;;;;;;;;;;;;;;5032660;28;19924;-77
2021/06/28 09:49:42;;;;;;;;;;;;;;;;;;5015627;28;19913;-76
2021/06/28 09:52:13;;;;;;;;;;;;;;;;;;5011583;28;19996;-76
2021/06/28 09:54:40;;;;;;;;;;;;;;;;;;5029373;28;19909;-77
2021/06/28 09:57:07;;;;;;;;;;;;;;;;;;5010703;28;19910;-74
2021/06/28 09:59:35;;;;;;;;;;;;;;;;;;5026178;28;19952;-77
2021/06/28 10:02:01;;;;;;;;;;;;;;;;;;5025052;28;19916;-74
2021/06/28 10:04:27;;;;;;;;;;;;;;;;;;5011417;28;19917;-77
2021/06/28 10:06:56;;;;;;;;;;;;;;;;;;5023010;28;19909;-76
2021/06/28 10:09:22;;;;;;;;;;;;;;;;;;5026009;28;19956;-74
2021/06/28 10:11:47;;;;;;;;;;;;;;;;;;5024868;28;19912;-75
2021/06/28 10:14:29;;;;;;;;;;;;;;;;;;5008738;28;19920;-75
2021/06/28 10:16:56;;;;;;;;;;;;;;;;;;5008994;28;19913;-74
2021/06/28 10:19:22;;;;;;;;;;;;;;;;;;5015982;28;20004;-73
2021/06/28 10:21:48;;;;;;;;;;;;;;;;;;5015805;28;19952;-75
2021/06/28 10:24:14;;;;;;;;;;;;;;;;;;5015595;28;20327;-75
2021/06/28 10:26:41;;;;;;;;;;;;;;;;;;5016820;28;19914;-75
2021/06/28 10:29:07;;;;;;;;;;;;;;;;;;5006441;28;19913;-74
2021/06/28 10:31:32;;;;;;;;;;;;;;;;;;5003253;28;20917;-83
2021/06/28 10:33:59;;;;;;;;;;;;;;;;;;5032561;28;19913;-76
2021/06/28 10:36:25;;;;;;;;;;;;;;;;;;5027678;28;19971;-76
2021/06/28 10:39:06;;;;;;;;;;;;;;;;;;5032861;28;19909;-76
2021/06/28 10:41:32;;;;;;;;;;;;;;;;;;5015379;28;19909;-76
2021/06/28 10:43:58;;;;;;;;;;;;;;;;;;5015217;28;19909;-77
2021/06/28 10:46:23;;;;;;;;;;;;;;;;;;5033316;28;19955;-78
2021/06/28 10:48:49;;;;;;;;;;;;;;;;;;5012470;28;20000;-76
2021/06/28 10:51:15;;;;;;;;;;;;;;;;;;5012945;28;19945;-76
2021/06/28 10:53:41;;;;;;;;;;;;;;;;;;5022459;28;20531;-76
2021/06/28 10:56:26;;;;;;;;;;;;;;;;;;5033236;28;19909;-76
2021/06/28 10:58:58;;;;;;;;;;;;;;;;;;5015558;28;19915;-76
2021/06/28 11:01:24;;;;;;;;;;;;;;;;;;5010949;28;19905;-76
2021/06/28 11:03:50;;;;;;;;;;;;;;;;;;4996211;28;19909;-76
2021/06/28 11:06:15;;;;;;;;;;;;;;;;;;5005988;28;20000;-76
2021/06/28 11:08:41;;;;;;;;;;;;;;;;;;5004192;28;20431;-77
2021/06/28 11:11:19;;;;;;;;;;;;;;;;;;5016259;28;19957;-77
2021/06/28 11:13:45;;;;;;;;;;;;;;;;;;5010774;28;19913;-76
2021/06/28 11:16:11;;;;;;;;;;;;;;;;;;5029699;28;19909;-76
2021/06/28 11:18:37;;;;;;;;;;;;;;;;;;5013677;28;19988;-76
2021/06/28 11:21:03;;;;;;;;;;;;;;;;;;5031145;28;19916;-76
2021/06/28 11:28:58;;;;;;;;;;;;;;;;;;5026949;28;20002;-77
2021/06/28 11:31:24;;;;;;;;;;;;;;;;;;5006351;28;20024;-75
2021/06/28 11:33:50;;;;;;;;;;;;;;;;;;5021205;28;19932;-76
2021/06/28 11:36:16;;;;;;;;;;;;;;;;;;5005744;28;19916;-76
2021/06/28 11:38:48;;;;;;;;;;;;;;;;;;5029899;28;19915;-77
2021/06/28 11:41:13;;;;;;;;;;;;;;;;;;5010699;28;19952;-77
2021/06/28 11:43:39;;;;;;;;;;;;;;;;;;5014785;28;19905;-77
2021/06/28 11:46:05;;;;;;;;;;;;;;;;;;5024154;28;19913;-75
2021/06/28 11:48:31;;;;;;;;;;;;;;;;;;5011524;28;19911;-76
2021/06/28 11:53:42;;;;;;;;;;;;;;;;;;5028470;28;19916;-76
2021/06/28 11:56:20;;;;;;;;;;;;;;;;;;5002466;28;19912;-76
2021/06/28 11:58:46;;;;;;;;;;;;;;;;;;5009965;28;19913;-75
2021/06/28 12:01:12;;;;;;;;;;;;;;;;;;5010919;28;19909;-76
2021/06/28 12:03:38;;;;;;;;;;;;;;;;;;5011406;28;20007;-75
2021/06/28 12:06:04;;;;;;;;;;;;;;;;;;5026924;28;19913;-76
2021/06/28 12:08:30;;;;;;;;;;;;;;;;;;5029454;28;19920;-75
2021/06/28 12:10:56;;;;;;;;;;;;;;;;;;5014190;28;20269;-76
2021/06/28 12:13:21;;;;;;;;;;;;;;;;;;5012721;28;19944;-75
2021/06/28 12:15:47;;;;;;;;;;;;;;;;;;5009009;28;20668;-75
2021/06/28 12:18:13;;;;;;;;;;;;;;;;;;5017991;28;19909;-77
2021/06/28 12:20:39;;;;;;;;;;;;;;;;;;5015070;28;19906;-78
2021/06/28 12:23:08;;;;;;;;;;;;;;;;;;5009738;28;20392;-75
2021/06/28 12:25:34;;;;;;;;;;;;;;;;;;5030028;28;19917;-76
2021/06/28 12:28:00;;;;;;;;;;;;;;;;;;5015676;28;20280;-76
2021/06/28 12:30:26;;;;;;;;;;;;;;;;;;5013433;28;19991;-77
2021/06/28 12:32:52;;;;;;;;;;;;;;;;;;5015170;28;19916;-76
2021/06/28 12:35:19;;;;;;;;;;;;;;;;;;5028457;28;19916;-78
2021/06/28 12:37:47;;;;;;;;;;;;;;;;;;5030679;28;19913;-77
2021/06/28 12:40:13;;;;;;;;;;;;;;;;;;5018551;28;19962;-76
2021/06/28 12:42:39;;;;;;;;;;;;;;;;;;5009255;28;20412;-75
2021/06/28 12:45:05;;;;;;;;;;;;;;;;;;5006918;28;20044;-79
2021/06/28 12:47:31;;;;;;;;;;;;;;;;;;5005226;28;19928;-79
2021/06/28 12:49:58;;;;;;;;;;;;;;;;;;5005739;28;19909;-79
2021/06/28 12:52:24;;;;;;;;;;;;;;;;;;5011556;28;20348;-78
2021/06/28 12:54:53;;;;;;;;;;;;;;;;;;5020718;28;19913;-78
2021/06/28 12:57:18;;;;;;;;;;;;;;;;;;5023988;28;19965;-79
2021/06/28 12:59:44;;;;;;;;;;;;;;;;;;5014416;28;20656;-78
2021/06/28 13:02:12;;;;;;;;;;;;;;;;;;5016948;28;19913;-79
2021/06/28 13:04:38;;;;;;;;;;;;;;;;;;5022642;28;20365;-80
2021/06/28 13:07:16;;;;;;;;;;;;;;;;;;5008959;28;20001;-80
2021/06/28 13:09:41;;;;;;;;;;;;;;;;;;5033436;28;19905;-80
2021/06/28 13:12:07;;;;;;;;;;;;;;;;;;5017828;28;19909;-80
2021/06/28 13:14:38;;;;;;;;;;;;;;;;;;5014802;28;20348;-80
2021/06/28 13:17:15;;;;;;;;;;;;;;;;;;5019903;28;19912;-80
2021/06/28 13:19:41;;;;;;;;;;;;;;;;;;5034751;28;19905;-81
2021/06/28 13:22:07;;;;;;;;;;;;;;;;;;5014239;28;20000;-81
2021/06/28 13:24:33;;;;;;;;;;;;;;;;;;5034081;28;19916;-82
2021/06/28 13:26:59;;;;;;;;;;;;;;;;;;5017403;28;20461;-81
2021/06/28 13:29:32;;;;;;;;;;;;;;;;;;5014444;28;21507;-82
2021/06/28 13:31:58;;;;;;;;;;;;;;;;;;5016109;28;20539;-82
2021/06/28 13:34:23;;;;;;;;;;;;;;;;;;5030390;28;19909;-81
2021/06/28 13:36:50;;;;;;;;;;;;;;;;;;5026170;28;20413;-79
2021/06/28 13:39:16;;;;;;;;;;;;;;;;;;5013508;28;19909;-79
2021/06/28 13:41:44;;;;;;;;;;;;;;;;;;5031036;28;19991;-79
2021/06/28 13:44:11;;;;;;;;;;;;;;;;;;5013770;28;20128;-81
2021/06/28 13:46:36;;;;;;;;;;;;;;;;;;4999860;28;20491;-79
2021/06/28 13:49:02;;;;;;;;;;;;;;;;;;5016645;28;20017;-84
2021/06/28 13:51:28;;;;;;;;;;;;;;;;;;5016634;28;19905;-80
2021/06/28 13:54:06;;;;;;;;;;;;;;;;;;5032031;28;19909;-79
2021/06/28 13:56:33;;;;;;;;;;;;;;;;;;5024189;28;19932;-79
2021/06/28 13:58:59;;;;;;;;;;;;;;;;;;5012277;28;20479;-80
2021/06/28 14:01:25;;;;;;;;;;;;;;;;;;5034555;28;19905;-78
2021/06/28 14:03:51;;;;;;;;;;;;;;;;;;5016627;28;19916;-79
2021/06/28 14:09:07;;;;;;;;;;;;;;;;;;5031170;28;19975;-80
2021/06/28 14:11:33;;;;;;;;;;;;;;;;;;5032103;28;19931;-79
2021/06/28 14:13:59;;;;;;;;;;;;;;;;;;5014764;28;20019;-78
2021/06/28 14:16:25;;;;;;;;;;;;;;;;;;5015251;28;19915;-79
2021/06/28 14:18:51;;;;;;;;;;;;;;;;;;5014970;28;19909;-78
2021/06/28 14:24:10;;;;;;;;;;;;;;;;;;5032982;28;19963;-81
2021/06/28 14:26:36;;;;;;;;;;;;;;;;;;5013761;28;19913;-82
2021/06/28 14:29:02;;;;;;;;;;;;;;;;;;5016781;28;20400;-83
2021/06/28 14:31:28;;;;;;;;;;;;;;;;;;5015262;28;19909;-77
2021/06/28 14:33:54;;;;;;;;;;;;;;;;;;5015235;28;19917;-80
2021/06/28 14:36:20;;;;;;;;;;;;;;;;;;5017209;28;19979;-81
2021/06/28 14:38:47;;;;;;;;;;;;;;;;;;5037377;28;19935;-83
2021/06/28 14:41:13;;;;;;;;;;;;;;;;;;5041488;28;19905;-80
2021/06/28 14:43:39;;;;;;;;;;;;;;;;;;5012481;28;20284;-82
2021/06/28 14:46:11;;;;;;;;;;;;;;;;;;5020316;28;19920;-80
2021/06/28 14:48:37;;;;;;;;;;;;;;;;;;5016226;28;19913;-80
2021/06/28 14:51:03;;;;;;;;;;;;;;;;;;5029504;28;20323;-79
2021/06/28 14:53:29;;;;;;;;;;;;;;;;;;5030170;28;19916;-80
2021/06/28 14:55:54;;;;;;;;;;;;;;;;;;5032901;28;19940;-81
2021/06/28 14:58:29;;;;;;;;;;;;;;;;;;5017615;28;20644;-77
2021/06/28 15:00:55;;;;;;;;;;;;;;;;;;5030275;28;19905;-80
2021/06/28 15:03:21;;;;;;;;;;;;;;;;;;5035598;28;19920;-76
2021/06/28 15:05:47;;;;;;;;;;;;;;;;;;5018056;28;19915;-82
2021/06/28 15:08:13;;;;;;;;;;;;;;;;;;5009844;28;20365;-80
2021/06/28 15:10:40;;;;;;;;;;;;;;;;;;5013133;28;19916;-80
2021/06/28 15:13:06;;;;;;;;;;;;;;;;;;5012072;28;19909;-79
2021/06/28 15:15:31;;;;;;;;;;;;;;;;;;5020577;28;19913;-78
2021/06/28 15:17:57;;;;;;;;;;;;;;;;;;5016139;28;19948;-79
2021/06/28 15:20:23;;;;;;;;;;;;;;;;;;5019617;28;20485;-80
2021/06/28 15:25:35;;;;;;;;;;;;;;;;;;5028263;28;20434;-78
2021/06/28 15:28:01;;;;;;;;;;;;;;;;;;5018512;28;20655;-78
2021/06/28 15:30:30;;;;;;;;;;;;;;;;;;5023836;28;19959;-78
2021/06/28 15:32:56;;;;;;;;;;;;;;;;;;5023514;28;20344;-78
2021/06/28 15:35:24;;;;;;;;;;;;;;;;;;5032291;28;19951;-78
2021/06/28 15:37:53;;;;;;;;;;;;;;;;;;5027792;28;19925;-78
2021/06/28 15:40:19;;;;;;;;;;;;;;;;;;5014424;28;19909;-77
2021/06/28 15:42:48;;;;;;;;;;;;;;;;;;5031188;28;20388;-79
2021/06/28 15:45:14;;;;;;;;;;;;;;;;;;5032132;28;20327;-76
2021/06/28 15:47:40;;;;;;;;;;;;;;;;;;5011540;28;19940;-77
2021/06/28 15:52:52;;;;;;;;;;;;;;;;;;5027260;28;19939;-76
2021/06/28 15:55:17;;;;;;;;;;;;;;;;;;5013281;28;19948;-76
2021/06/28 15:57:43;;;;;;;;;;;;;;;;;;5014937;28;19996;-76
2021/06/28 16:00:09;;;;;;;;;;;;;;;;;;5011554;28;19940;-79
2021/06/28 16:02:35;;;;;;;;;;;;;;;;;;5007822;28;19909;-78
2021/06/28 16:05:03;;;;;;;;;;;;;;;;;;5009336;28;19913;-82
2021/06/28 16:07:29;;;;;;;;;;;;;;;;;;5008939;28;19917;-76
2021/06/28 16:09:55;;;;;;;;;;;;;;;;;;5003503;28;20802;-77
2021/06/28 16:12:21;;;;;;;;;;;;;;;;;;5013098;28;19913;-77
2021/06/28 16:14:46;;;;;;;;;;;;;;;;;;5028088;28;20007;-78
2021/06/28 16:17:12;;;;;;;;;;;;;;;;;;5029003;28;19920;-76
2021/06/28 16:19:38;;;;;;;;;;;;;;;;;;5029896;28;20514;-76
2021/06/28 16:22:04;;;;;;;;;;;;;;;;;;5026082;28;19980;-76
2021/06/28 16:24:33;;;;;;;;;;;;;;;;;;5033152;28;19923;-78
2021/06/28 16:26:59;;;;;;;;;;;;;;;;;;5011338;28;19924;-83
2021/06/28 16:29:25;;;;;;;;;;;;;;;;;;5028709;28;19913;-78
2021/06/28 16:31:51;;;;;;;;;;;;;;;;;;5011070;28;19917;-81
2021/06/28 16:34:18;;;;;;;;;;;;;;;;;;5009174;28;20563;-82
2021/06/28 16:36:44;;;;;;;;;;;;;;;;;;5022754;28;19920;-80
2021/06/28 16:39:10;;;;;;;;;;;;;;;;;;5038474;23;20435;-79
2021/06/28 16:41:36;;;;;;;;;;;;;;;;;;5011112;28;19920;-77
2021/06/28 16:44:01;;;;;;;;;;;;;;;;;;5025654;28;19909;-77
2021/06/28 16:46:27;;;;;;;;;;;;;;;;;;5007300;28;20009;-79
2021/06/28 16:48:53;;;;;;;;;;;;;;;;;;5008001;28;19925;-78
2021/06/28 16:51:19;;;;;;;;;;;;;;;;;;5009525;28;19959;-78
2021/06/28 16:53:45;;;;;;;;;;;;;;;;;;5006549;28;20347;-77
2021/06/28 16:56:11;;;;;;;;;;;;;;;;;;5012776;28;19944;-78
2021/06/28 16:58:37;;;;;;;;;;;;;;;;;;5011806;28;19967;-79
2021/06/28 17:01:03;;;;;;;;;;;;;;;;;;5009463;28;19913;-78
2021/06/28 17:03:29;;;;;;;;;;;;;;;;;;5008051;28;20016;-79
2021/06/28 17:05:55;;;;;;;;;;;;;;;;;;5012054;28;19917;-79
2021/06/28 17:08:22;;;;;;;;;;;;;;;;;;5011654;28;19936;-79
2021/06/28 17:10:48;;;;;;;;;;;;;;;;;;5013954;28;19956;-78
2021/06/28 17:13:14;;;;;;;;;;;;;;;;;;5010353;28;19948;-78
2021/06/28 17:15:40;;;;;;;;;;;;;;;;;;5011732;28;19913;-79
2021/06/28 17:18:06;;;;;;;;;;;;;;;;;;5008762;28;20003;-78
2021/06/28 17:20:32;;;;;;;;;;;;;;;;;;5013452;28;19909;-79
2021/06/28 17:22:58;;;;;;;;;;;;;;;;;;5028227;28;19924;-79
2021/06/28 17:25:23;;;;;;;;;;;;;;;;;;5028569;28;20503;-79
2021/06/28 17:27:50;;;;;;;;;;;;;;;;;;5011895;28;19921;-79
2021/06/28 17:30:16;;;;;;;;;;;;;;;;;;5009640;28;19917;-79
2021/06/28 17:32:42;;;;;;;;;;;;;;;;;;5009097;28;19932;-79
2021/06/28 17:35:08;;;;;;;;;;;;;;;;;;5010219;28;19943;-79
2021/06/28 17:37:34;;;;;;;;;;;;;;;;;;5009102;28;19920;-78
2021/06/28 17:40:00;;;;;;;;;;;;;;;;;;5026045;28;20447;-78
2021/06/28 17:42:26;;;;;;;;;;;;;;;;;;5025013;28;19909;-78
2021/06/28 17:44:52;;;;;;;;;;;;;;;;;;5028177;28;19921;-79
2021/06/28 17:47:18;;;;;;;;;;;;;;;;;;5045386;28;20235;-78
2021/06/28 17:49:43;;;;;;;;;;;;;;;;;;5027160;28;19920;-80
2021/06/28 17:52:09;;;;;;;;;;;;;;;;;;5027228;28;20594;-79
2021/06/28 17:54:35;;;;;;;;;;;;;;;;;;5030843;28;19908;-78
2021/06/28 17:57:01;;;;;;;;;;;;;;;;;;5030092;28;20054;-79
2021/06/28 18:08:01;;;;;;;;;;;;;;;;;;4967457;28;19928;-82
2021/06/28 18:10:34;;;;;;;;;;;;;;;;;;4986084;28;19957;-83
2021/06/28 18:15:59;;;;;;;;;;;;;;;;;;4976181;28;19912;-85
2021/06/28 18:18:26;;;;;;;;;;;;;;;;;;5020209;28;19945;-79
2021/06/28 18:20:52;;;;;;;;;;;;;;;;;;5038657;28;19940;-80